Soleil Weather Down

Nearby METAR Reports

 

KCNI - Canton/Cherokee, Georgia, USA
Distance from station: ENE 6mi, 10km
Updated: Sat, 21-Sep-2019 11:30pm EDT
Clear
Clear
 Wind from calm
Wind: Calm
Temperature: 63°F , 17°C
Dew Point: 59°F , 15°C
Humidity: 88%
Barometer: 30.27 inHg , 1025.1 hPa
Clouds: Clear
Visibility: 10 miles , 16 km
2019/09/22 03:30 KCNI 220330Z AUTO 00000KT 10SM CLR 17/15 A3027 RMK AO2
KRYY - Marietta Mccolum, Georgia, USA
Distance from station: SSW 18mi, 29km
Updated: Sat, 21-Sep-2019 10:50pm EDT
Clear
Clear
 Wind from calm
Wind: Calm
Temperature: 70°F , 21°C
Dew Point: 57°F , 14°C
Humidity: 64%
Barometer: 30.25 inHg , 1024.4 hPa
Clouds: Clear
Visibility: 10 miles , 16 km
2019/09/22 02:50 KRYY 220250Z AUTO 00000KT 10SM CLR 21/14 A3025 RMK AO2 SLP964 T02110144 51012 $
KVPC - Cartersville, Georgia, USA
Distance from station: WSW 22mi, 35km
Updated: Sat, 21-Sep-2019 10:53pm EDT
Clear
Clear
 Wind from calm
Wind: Calm
Temperature: 66°F , 19°C
Dew Point: 57°F , 14°C
Humidity: 73%
Barometer: 30.24 inHg , 1024 hPa
Clouds: Clear
Visibility: 10 miles , 16 km
2019/09/22 02:53 KVPC 220253Z AUTO 00000KT 10SM CLR 19/14 A3024 RMK AO2 SLP228 T01890144 53012
 
KMGE - Dobbins Afb/Mari, Georgia, USA
Distance from station: S 24mi, 39km
Updated: Sat, 21-Sep-2019 10:56pm EDT
Clear
Clear
 Wind from calm
Wind: Calm
Temperature: 70°F , 21°C
Dew Point: 57°F , 14°C
Humidity: 64%
Barometer: 30.24 inHg , 1024 hPa
Clouds: Clear
Visibility: 10 miles , 16 km
2019/09/22 02:56 KMGE 220256Z 00000KT 10SM CLR 21/14 A3024 RMK AO2A SLP233 T02120136 52012 $
KPDK - Peachtree/Dekalb, Georgia, USA
Distance from station: SSE 29mi, 47km
Updated: Sat, 21-Sep-2019 10:53pm EDT
Clear
Clear
 Wind from calm
Wind: Calm
Temperature: 66°F , 19°C
Dew Point: 55°F , 13°C
Humidity: 68%
Barometer: 30.24 inHg , 1024 hPa
Clouds: Clear
Visibility: 10 miles , 16 km
2019/09/22 02:53 KPDK 220253Z 00000KT 10SM CLR 19/13 A3024 RMK AO2 SLP229 T01890133 51013
KFTY - Atlanta/Fulton, Georgia, USA
Distance from station: S 34mi, 54km
Updated: Sat, 21-Sep-2019 10:53pm EDT
Clear
Clear
 Wind from calm
Wind: Calm
Temperature: 68°F , 20°C
Dew Point: 61°F , 16°C
Humidity: 78%
Barometer: 30.23 inHg , 1023.7 hPa
Clouds: Clear
Visibility: 10 miles , 16 km
2019/09/22 02:53 KFTY 220253Z 00000KT 10SM CLR 20/16 A3023 RMK AO2 SLP230 T02000156 51014
 
KPUJ - Atlanta/Paulding, Georgia, USA
Distance from station: SW 34mi, 55km
Updated: Sat, 21-Sep-2019 11:35pm EDT
Clear
Clear
 Wind from calm
Wind: Calm
Temperature: 68°F , 20°C
Dew Point: 54°F , 12°C
Humidity: 60%
Barometer: 30.25 inHg , 1024.4 hPa
Clouds: Clear
Visibility: 10 miles , 16 km
2019/09/22 03:35 KPUJ 220335Z AUTO 00000KT 10SM CLR 20/12 A3025 RMK AO2
KDNN - Dalton, Georgia, USA
Distance from station: NW 37mi, 59km
Updated: Sat, 21-Sep-2019 11:35pm EDT
Clear
Clear
 Wind from calm
Wind: Calm
Temperature: 66°F , 19°C
Dew Point: 57°F , 14°C
Humidity: 73%
Barometer: 30.24 inHg , 1024 hPa
Clouds: Clear
Visibility: 10 miles , 16 km
2019/09/22 03:35 KDNN 220335Z AUTO 00000KT 10SM CLR 19/14 A3024 RMK AO2
KLZU - Lawrenceville, Georgia, USA
Distance from station: ESE 37mi, 59km
Updated: Sat, 21-Sep-2019 10:56pm EDT
Clear
Clear
 Wind from calm
Wind: Calm
Temperature: 64°F , 18°C
Dew Point: 63°F , 17°C
Humidity: 94%
Barometer: 30.25 inHg , 1024.4 hPa
Clouds: Clear
Visibility: 10 miles , 16 km
2019/09/22 02:56 KLZU 220256Z AUTO 00000KT 10SM CLR 18/17 A3025 RMK AO2 SLP248 T01780167 51012
 
KRMG - Rome, Georgia, USA
Distance from station: W 38mi, 61km
Updated: Sat, 21-Sep-2019 10:53pm EDT
Clear
Clear
 Wind from calm
Wind: Calm
Temperature: 68°F , 20°C
Dew Point: 57°F , 14°C
Humidity: 69%
Barometer: 30.22 inHg , 1023.4 hPa
Clouds: Clear
Visibility: 10 miles , 16 km
2019/09/22 02:53 KRMG 220253Z AUTO 00000KT 10SM CLR 20/14 A3022 RMK AO2 SLP224 T02000139 51014
KGVL - Gainesville, Georgia, USA
Distance from station: E 39mi, 62km
Updated: Sat, 21-Sep-2019 10:53pm EDT
Clear
Clear
 Wind from calm
Wind: Calm
Temperature: 70°F , 21°C
Dew Point: 59°F , 15°C
Humidity: 69%
Barometer: 30.28 inHg , 1025.4 hPa
Clouds: Clear
Visibility: 10 miles , 16 km
2019/09/22 02:53 KGVL 220253Z AUTO 00000KT 10SM CLR 21/15 A3028 RMK AO2 SLP239 T02110150 51012
KATL - Atlanta, Georgia, USA
Distance from station: S 44mi, 71km
Updated: Sat, 21-Sep-2019 10:52pm EDT
Clear
Clear
 Wind from ESE
Wind: ESE 5 mph , 7 km/h
Temperature: 75°F , 24°C
Dew Point: 55°F , 13°C
Humidity: 50%
Barometer: 30.24 inHg , 1024 hPa
Clouds: Clear
Visibility: 10 miles , 16 km
2019/09/22 02:52 KATL 220252Z 11004KT 10SM CLR 24/13 A3024 RMK AO2 SLP231 T02440128 51014